createdAt,value
2018-05-25T00:00:11.996Z,22.20
2018-05-25T00:02:41.988Z,22.00
2018-05-25T00:05:12.322Z,21.80
2018-05-25T00:07:41.606Z,21.80
2018-05-25T00:10:11.334Z,21.80
2018-05-25T00:12:40.929Z,21.80
2018-05-25T00:15:10.948Z,21.90
2018-05-25T00:17:40.495Z,21.80
2018-05-25T00:20:10.247Z,21.80
2018-05-25T00:22:40.348Z,21.80
2018-05-25T00:25:09.912Z,21.80
2018-05-25T00:27:39.648Z,21.80
2018-05-25T00:30:08.724Z,21.70
2018-05-25T00:32:38.425Z,21.70
2018-05-25T00:35:08.017Z,21.60
2018-05-25T00:37:37.520Z,21.40
2018-05-25T00:40:06.813Z,21.30
2018-05-25T00:42:38.170Z,21.30
2018-05-25T00:45:07.796Z,21.30
2018-05-25T00:47:37.375Z,21.20
2018-05-25T00:50:08.466Z,21.20
2018-05-25T00:52:37.861Z,21.20
2018-05-25T00:58:09.593Z,21.10
2018-05-25T01:00:40.393Z,21.00
2018-05-25T01:03:09.978Z,20.90
2018-05-25T01:05:39.590Z,20.80
2018-05-25T01:08:10.323Z,20.80
2018-05-25T01:10:39.963Z,20.70
2018-05-25T01:13:10.721Z,20.70
2018-05-25T01:15:39.952Z,20.70
2018-05-25T01:18:09.652Z,20.60
2018-05-25T01:20:39.175Z,20.60
2018-05-25T01:23:10.604Z,20.60
2018-05-25T01:25:40.153Z,20.70
2018-05-25T01:28:10.814Z,20.60
2018-05-25T01:30:39.911Z,20.50
2018-05-25T01:33:09.603Z,20.50
2018-05-25T01:35:39.382Z,20.60
2018-05-25T01:38:09.718Z,20.50
2018-05-25T01:40:58.714Z,20.50
2018-05-25T01:43:29.704Z,20.50
2018-05-25T01:45:59.788Z,20.40
2018-05-25T01:48:29.409Z,20.40
2018-05-25T01:50:59.076Z,20.40
2018-05-25T01:53:29.309Z,20.40
2018-05-25T01:55:58.765Z,20.30
2018-05-25T01:58:28.473Z,20.30
2018-05-25T02:00:57.858Z,20.30
2018-05-25T02:03:27.453Z,20.30
2018-05-25T02:05:56.849Z,20.20
2018-05-25T02:08:26.393Z,20.20
2018-05-25T02:10:56.081Z,20.10
2018-05-25T02:13:25.752Z,20.10
2018-05-25T02:15:55.333Z,20.00
2018-05-25T02:18:24.901Z,20.00
2018-05-25T02:20:54.506Z,20.00
2018-05-25T02:23:24.976Z,19.90
2018-05-25T02:25:55.309Z,19.80
2018-05-25T02:28:24.973Z,19.70
2018-05-25T02:30:55.021Z,19.80
2018-05-25T02:33:24.496Z,19.70
2018-05-25T02:35:54.533Z,19.70
2018-05-25T02:38:24.125Z,19.60
2018-05-25T02:40:54.270Z,19.60
2018-05-25T02:43:24.416Z,19.60
2018-05-25T02:45:54.128Z,19.60
2018-05-25T02:48:24.265Z,19.50
2018-05-25T02:50:53.895Z,19.50
2018-05-25T02:53:23.418Z,19.50
2018-05-25T02:55:52.841Z,19.50
2018-05-25T02:58:23.319Z,19.40
2018-05-25T03:00:52.789Z,19.30
2018-05-25T03:03:22.564Z,19.30
2018-05-25T03:05:52.217Z,19.20
2018-05-25T03:08:21.565Z,19.10
2018-05-25T03:10:51.183Z,19.20
2018-05-25T03:13:21.409Z,19.10
2018-05-25T03:15:51.268Z,19.10
2018-05-25T03:18:20.720Z,19.10
2018-05-25T03:20:52.146Z,19.00
2018-05-25T03:23:23.215Z,18.90
2018-05-25T03:25:53.944Z,18.80
2018-05-25T03:28:24.078Z,18.80
2018-05-25T03:30:54.421Z,18.70
2018-05-25T03:33:23.999Z,18.60
2018-05-25T03:35:54.556Z,18.60
2018-05-25T03:38:24.765Z,18.40
2018-05-25T03:40:56.591Z,18.30
2018-05-25T03:43:26.301Z,18.30
2018-05-25T03:45:55.888Z,18.30
2018-05-25T03:51:06.621Z,18.20
2018-05-25T03:53:37.256Z,18.10
2018-05-25T03:56:06.901Z,18.00
2018-05-25T04:01:58.771Z,17.90
2018-05-25T04:04:35.946Z,17.80
2018-05-25T04:07:38.342Z,17.70
2018-05-25T04:10:08.052Z,17.60
2018-05-25T04:12:39.793Z,17.50
2018-05-25T04:15:11.484Z,17.50
2018-05-25T04:17:41.516Z,17.40
2018-05-25T04:20:12.477Z,17.40
2018-05-25T04:22:41.928Z,17.30
2018-05-25T04:25:14.125Z,17.30
2018-05-25T04:27:43.924Z,17.30
2018-05-25T04:30:14.535Z,17.20
2018-05-25T04:32:44.006Z,17.20
2018-05-25T04:35:13.592Z,17.10
2018-05-25T04:37:42.951Z,17.10
2018-05-25T04:40:12.384Z,17.10
2018-05-25T04:42:42.183Z,17.00
2018-05-25T04:45:11.990Z,17.00
2018-05-25T04:47:41.814Z,16.90
2018-05-25T04:50:13.286Z,16.90
2018-05-25T04:52:42.904Z,16.90
2018-05-25T04:55:13.142Z,16.80
2018-05-25T04:57:42.659Z,16.80
2018-05-25T05:00:12.991Z,16.80
2018-05-25T05:02:44.539Z,16.70
2018-05-25T05:05:14.919Z,16.70
2018-05-25T05:07:44.534Z,16.70
2018-05-25T05:10:14.179Z,16.70
2018-05-25T05:12:44.279Z,16.60
2018-05-25T05:15:14.126Z,16.60
2018-05-25T05:17:43.873Z,16.60
2018-05-25T05:20:13.775Z,16.60
2018-05-25T05:22:43.250Z,16.50
2018-05-25T05:25:13.599Z,16.40
2018-05-25T05:27:43.456Z,16.50
2018-05-25T05:30:13.151Z,16.40
2018-05-25T05:32:42.532Z,16.40
2018-05-25T05:35:12.742Z,16.30
2018-05-25T05:37:42.944Z,16.30
2018-05-25T05:40:12.668Z,16.20
2018-05-25T05:42:43.720Z,16.20
2018-05-25T05:45:14.561Z,16.20
2018-05-25T05:47:45.603Z,16.20
2018-05-25T05:50:15.431Z,16.20
2018-05-25T05:52:45.014Z,16.20
2018-05-25T05:55:20.098Z,16.10
2018-05-25T05:57:49.612Z,16.10
2018-05-25T06:00:19.287Z,16.10
2018-05-25T06:02:48.897Z,16.10
2018-05-25T06:05:18.790Z,16.10
2018-05-25T06:07:49.216Z,16.00
2018-05-25T06:10:18.723Z,16.00
2018-05-25T06:12:48.209Z,16.00
2018-05-25T06:15:18.003Z,16.00
2018-05-25T06:17:48.967Z,16.00
2018-05-25T06:20:20.750Z,16.00
2018-05-25T06:22:53.914Z,16.00
2018-05-25T06:25:24.876Z,16.00
2018-05-25T06:27:55.055Z,16.00
2018-05-25T06:30:24.620Z,15.90
2018-05-25T06:32:55.170Z,16.00
2018-05-25T06:35:26.521Z,16.00
2018-05-25T06:37:56.444Z,16.00
2018-05-25T06:40:27.019Z,16.00
2018-05-25T06:42:56.403Z,15.90
2018-05-25T06:45:26.290Z,15.90
2018-05-25T06:47:55.847Z,15.90
2018-05-25T06:50:25.548Z,15.90
2018-05-25T06:52:56.364Z,15.90
2018-05-25T06:55:25.781Z,15.90
2018-05-25T06:57:56.703Z,15.90
2018-05-25T07:00:26.848Z,15.90
2018-05-25T07:02:57.284Z,15.90
2018-05-25T07:05:27.352Z,15.90
2018-05-25T07:07:56.893Z,15.80
2018-05-25T07:10:26.737Z,15.80
2018-05-25T07:12:56.005Z,15.80
2018-05-25T07:15:26.209Z,15.80
2018-05-25T07:17:58.869Z,15.70
2018-05-25T07:20:28.569Z,15.70
2018-05-25T07:22:58.197Z,15.80
2018-05-25T07:25:28.298Z,15.80
2018-05-25T07:27:57.681Z,15.70
2018-05-25T07:30:27.248Z,15.70
2018-05-25T07:32:56.693Z,15.70
2018-05-25T07:35:25.931Z,15.70
2018-05-25T07:37:55.307Z,15.60
2018-05-25T07:40:24.830Z,15.60
2018-05-25T07:42:54.612Z,15.60
2018-05-25T07:45:24.275Z,15.60
2018-05-25T07:47:53.745Z,15.50
2018-05-25T07:50:24.270Z,15.50
2018-05-25T07:52:53.815Z,15.50
2018-05-25T07:55:24.036Z,15.40
2018-05-25T07:57:54.281Z,15.40
2018-05-25T08:00:24.974Z,15.40
2018-05-25T08:02:54.765Z,15.40
2018-05-25T08:05:24.313Z,15.40
2018-05-25T08:07:54.137Z,15.40
2018-05-25T08:10:24.667Z,15.30
2018-05-25T08:12:54.955Z,15.30
2018-05-25T08:15:24.214Z,15.30
2018-05-25T08:17:53.630Z,15.30
2018-05-25T08:20:23.339Z,15.20
2018-05-25T08:22:53.395Z,15.20
2018-05-25T08:25:22.903Z,15.20
2018-05-25T08:27:52.484Z,15.10
2018-05-25T08:30:21.866Z,15.20
2018-05-25T08:32:51.587Z,15.10
2018-05-25T08:35:20.837Z,15.10
2018-05-25T08:37:51.228Z,15.10
2018-05-25T08:40:21.106Z,15.10
2018-05-25T08:42:51.796Z,15.10
2018-05-25T08:45:23.023Z,15.00
2018-05-25T08:47:52.294Z,15.00
2018-05-25T08:50:21.792Z,15.00
2018-05-25T08:52:54.603Z,15.00
2018-05-25T08:55:24.673Z,14.90
2018-05-25T08:57:55.108Z,14.90
2018-05-25T09:00:24.969Z,14.90
2018-05-25T09:02:56.662Z,14.90
2018-05-25T09:05:27.097Z,14.80
2018-05-25T09:07:58.239Z,14.80
2018-05-25T09:10:28.684Z,14.80
2018-05-25T09:12:59.141Z,14.80
2018-05-25T09:15:28.797Z,14.80
2018-05-25T09:17:58.554Z,14.80
2018-05-25T09:20:27.934Z,14.70
2018-05-25T09:22:57.363Z,14.70
2018-05-25T09:25:27.249Z,14.60
2018-05-25T09:27:56.579Z,14.60
2018-05-25T09:30:26.065Z,14.60
2018-05-25T09:32:55.444Z,14.50
2018-05-25T09:35:25.043Z,14.50
2018-05-25T09:37:54.380Z,14.50
2018-05-25T09:40:24.031Z,14.40
2018-05-25T09:42:53.485Z,14.40
2018-05-25T09:45:23.804Z,14.30
2018-05-25T09:47:53.334Z,14.30
2018-05-25T09:50:23.037Z,14.20
2018-05-25T09:52:52.672Z,14.20
2018-05-25T09:55:21.982Z,14.20
2018-05-25T09:57:57.804Z,14.20
2018-05-25T10:00:27.500Z,14.20
2018-05-25T10:02:57.156Z,14.20
2018-05-25T10:05:26.775Z,14.10
2018-05-25T10:07:56.291Z,14.10
2018-05-25T10:10:25.718Z,14.10
2018-05-25T10:12:56.284Z,14.10
2018-05-25T10:15:25.766Z,14.00
2018-05-25T10:17:55.352Z,14.00
2018-05-25T10:20:25.098Z,14.00
2018-05-25T10:22:54.700Z,14.00
2018-05-25T10:25:24.360Z,14.00
2018-05-25T10:27:55.022Z,14.00
2018-05-25T10:30:25.529Z,13.90
2018-05-25T10:32:56.666Z,14.00
2018-05-25T10:35:26.210Z,13.90
2018-05-25T10:37:55.490Z,13.80
2018-05-25T10:40:24.720Z,13.90
2018-05-25T10:42:54.230Z,13.80
2018-05-25T10:45:24.787Z,13.80
2018-05-25T10:47:55.445Z,13.80
2018-05-25T10:50:25.685Z,13.90
2018-05-25T10:52:55.106Z,13.80
2018-05-25T10:55:25.267Z,13.90
2018-05-25T10:57:54.856Z,13.90
2018-05-25T11:00:24.682Z,14.00
2018-05-25T11:02:54.982Z,13.90
2018-05-25T11:05:24.405Z,14.00
2018-05-25T11:07:53.966Z,14.10
2018-05-25T11:10:23.712Z,14.00
2018-05-25T11:12:54.113Z,14.10
2018-05-25T11:15:24.121Z,14.10
2018-05-25T11:17:53.880Z,14.10
2018-05-25T11:20:23.599Z,14.10
2018-05-25T11:22:53.277Z,14.10
2018-05-25T11:25:23.110Z,14.00
2018-05-25T11:27:52.532Z,14.00
2018-05-25T11:30:22.994Z,14.00
2018-05-25T11:32:53.901Z,14.00
2018-05-25T11:35:24.205Z,13.90
2018-05-25T11:37:53.688Z,13.90
2018-05-25T11:40:23.057Z,13.90
2018-05-25T11:42:52.455Z,13.80
2018-05-25T11:45:22.908Z,13.80
2018-05-25T11:47:53.220Z,13.80
2018-05-25T11:50:22.957Z,13.80
2018-05-25T11:52:52.533Z,13.70
2018-05-25T11:55:22.065Z,13.70
2018-05-25T11:57:51.832Z,13.70
2018-05-25T12:00:21.126Z,13.60
2018-05-25T12:02:51.535Z,13.60
2018-05-25T12:05:21.252Z,13.50
2018-05-25T12:07:51.471Z,13.50
2018-05-25T12:10:21.529Z,13.40
2018-05-25T12:12:51.692Z,13.40
2018-05-25T12:15:23.153Z,13.40
2018-05-25T12:17:52.629Z,13.40
2018-05-25T12:20:22.064Z,13.30
2018-05-25T12:22:51.828Z,13.30
2018-05-25T12:25:21.522Z,13.30
2018-05-25T12:27:51.154Z,13.30
2018-05-25T12:30:21.471Z,13.30
2018-05-25T12:32:50.548Z,13.20
2018-05-25T12:35:20.028Z,13.30
2018-05-25T12:37:49.422Z,13.20
2018-05-25T12:40:19.327Z,13.20
2018-05-25T12:42:50.720Z,13.30
2018-05-25T12:45:21.722Z,13.20
2018-05-25T12:47:51.317Z,13.20
2018-05-25T12:50:21.617Z,13.30
2018-05-25T12:52:51.680Z,13.30
2018-05-25T12:55:22.773Z,13.40
2018-05-25T12:57:52.718Z,13.50
2018-05-25T13:00:22.697Z,13.60
2018-05-25T13:02:52.678Z,13.70
2018-05-25T13:05:23.371Z,13.90
2018-05-25T13:07:53.110Z,13.80
2018-05-25T13:10:22.385Z,13.90
2018-05-25T13:12:52.743Z,13.90
2018-05-25T13:15:22.101Z,13.90
2018-05-25T13:17:51.387Z,14.00
2018-05-25T13:20:20.774Z,14.00
2018-05-25T13:22:50.421Z,14.00
2018-05-25T13:25:20.210Z,14.00
2018-05-25T13:27:49.994Z,14.00
2018-05-25T13:30:19.577Z,14.00
2018-05-25T13:32:49.451Z,14.00
2018-05-25T13:35:19.000Z,14.00
2018-05-25T13:37:49.385Z,14.00
2018-05-25T13:40:19.201Z,14.00
2018-05-25T13:42:48.361Z,14.00
2018-05-25T13:45:17.615Z,14.10
2018-05-25T13:47:47.223Z,14.20
2018-05-25T13:50:16.304Z,14.20
2018-05-25T13:52:45.973Z,14.30
2018-05-25T13:55:15.989Z,14.30
2018-05-25T13:57:46.258Z,14.40
2018-05-25T14:00:15.509Z,14.40
2018-05-25T14:02:45.086Z,14.40
2018-05-25T14:05:14.897Z,14.30
2018-05-25T14:07:44.730Z,14.30
2018-05-25T14:10:14.379Z,14.40
2018-05-25T14:12:44.673Z,14.50
2018-05-25T14:15:14.975Z,14.60
2018-05-25T14:17:45.043Z,14.90
2018-05-25T14:22:51.770Z,14.90
2018-05-25T14:25:21.292Z,15.00
2018-05-25T14:27:51.602Z,15.10
2018-05-25T14:30:22.623Z,15.10
2018-05-25T14:32:52.311Z,15.20
2018-05-25T14:35:21.937Z,15.30
2018-05-25T14:37:51.645Z,15.50
2018-05-25T14:40:21.114Z,15.50
2018-05-25T14:42:51.417Z,15.50
2018-05-25T14:45:21.205Z,15.50
2018-05-25T14:47:50.855Z,15.50
2018-05-25T14:50:20.297Z,15.50
2018-05-25T14:52:50.698Z,15.50
2018-05-25T14:55:20.682Z,15.60
2018-05-25T14:57:51.741Z,15.80
2018-05-25T15:00:21.257Z,15.90
2018-05-25T15:02:53.679Z,15.80
2018-05-25T15:05:23.521Z,15.80
2018-05-25T15:07:52.865Z,15.90
2018-05-25T15:10:22.451Z,15.80
2018-05-25T15:12:52.021Z,15.80
2018-05-25T15:15:21.478Z,15.80
2018-05-25T15:17:51.116Z,16.00
2018-05-25T15:20:20.546Z,16.20
2018-05-25T15:22:50.225Z,16.20
2018-05-25T15:25:19.820Z,16.30
2018-05-25T15:27:49.476Z,16.40
2018-05-25T15:30:19.188Z,16.70
2018-05-25T15:32:50.581Z,16.90
2018-05-25T15:35:19.966Z,16.90
2018-05-25T15:37:49.752Z,17.10
2018-05-25T15:40:19.253Z,17.30
2018-05-25T15:42:48.665Z,17.30
2018-05-25T15:45:18.395Z,17.40
2018-05-25T15:47:47.846Z,17.20
2018-05-25T15:50:17.523Z,17.20
2018-05-25T15:52:48.318Z,17.40
2018-05-25T15:55:17.881Z,17.40
2018-05-25T15:57:47.638Z,17.50
2018-05-25T16:00:17.399Z,17.60
2018-05-25T16:02:47.291Z,17.70
2018-05-25T16:05:16.849Z,17.70
2018-05-25T16:07:46.802Z,17.80
2018-05-25T16:10:16.330Z,17.80
2018-05-25T16:12:45.789Z,17.80
2018-05-25T16:15:15.590Z,17.90
2018-05-25T16:17:45.912Z,18.00
2018-05-25T16:20:15.652Z,18.10
2018-05-25T16:22:45.341Z,18.30
2018-05-25T16:25:15.253Z,18.40
2018-05-25T16:27:45.564Z,18.70
2018-05-25T16:30:15.169Z,18.70
2018-05-25T16:32:44.864Z,18.80
2018-05-25T16:35:14.374Z,18.90
2018-05-25T16:37:44.100Z,18.80
2018-05-25T16:40:14.663Z,19.10
2018-05-25T16:42:43.961Z,19.10
2018-05-25T16:45:13.834Z,19.40
2018-05-25T16:47:44.577Z,19.60
2018-05-25T16:50:14.444Z,19.70
2018-05-25T16:52:44.052Z,20.10
2018-05-25T16:55:13.684Z,20.10
2018-05-25T16:57:43.279Z,20.00
2018-05-25T17:00:12.887Z,19.80
2018-05-25T17:02:43.010Z,20.10
2018-05-25T17:05:14.738Z,20.80
2018-05-25T17:07:44.474Z,21.20
2018-05-25T17:10:15.207Z,21.70
2018-05-25T17:12:45.954Z,22.20
2018-05-25T17:15:16.394Z,23.10
2018-05-25T17:17:45.902Z,23.10
2018-05-25T17:20:16.005Z,23.40
2018-05-25T17:22:45.686Z,23.30
2018-05-25T17:25:15.819Z,23.60
2018-05-25T17:27:45.252Z,23.30
2018-05-25T17:30:14.876Z,23.00
2018-05-25T17:32:44.714Z,23.30
2018-05-25T17:35:14.392Z,24.10
2018-05-25T17:37:43.884Z,27.30
2018-05-25T17:40:13.895Z,30.60
2018-05-25T17:42:43.913Z,32.70
2018-05-25T17:45:13.886Z,33.30
2018-05-25T17:47:44.436Z,32.00
2018-05-25T17:50:13.906Z,30.70
2018-05-25T17:52:44.381Z,29.60
2018-05-25T17:55:13.626Z,28.20
2018-05-25T17:57:44.224Z,25.50
2018-05-25T18:00:14.101Z,25.40
2018-05-25T18:02:44.189Z,24.50
2018-05-25T18:05:14.149Z,23.90
2018-05-25T18:07:43.634Z,23.30
2018-05-25T18:10:13.295Z,22.70
2018-05-25T18:12:42.859Z,22.40
2018-05-25T18:15:12.585Z,22.10
2018-05-25T18:17:41.852Z,21.70
2018-05-25T18:20:10.836Z,21.20
2018-05-25T18:22:40.364Z,21.10
2018-05-25T18:25:09.924Z,20.90
2018-05-25T18:27:39.922Z,20.60
2018-05-25T18:30:11.368Z,20.60
2018-05-25T18:32:40.966Z,20.40
2018-05-25T18:35:10.704Z,20.30
2018-05-25T18:37:40.272Z,20.30
2018-05-25T18:40:10.434Z,20.30
2018-05-25T18:42:39.922Z,20.40
2018-05-25T18:45:09.727Z,20.30
2018-05-25T18:47:40.513Z,20.30
2018-05-25T18:50:09.976Z,20.20
2018-05-25T18:52:40.745Z,20.40
2018-05-25T18:55:11.378Z,20.40
2018-05-25T18:57:42.163Z,20.30
2018-05-25T19:00:11.535Z,20.30
2018-05-25T19:02:41.599Z,20.40
2018-05-25T19:05:11.981Z,20.20
2018-05-25T19:07:41.563Z,20.40
2018-05-25T19:10:11.266Z,20.50
2018-05-25T19:12:41.370Z,20.70
2018-05-25T19:15:10.410Z,21.10
2018-05-25T19:17:39.928Z,21.50
2018-05-25T19:20:09.133Z,22.50
2018-05-25T19:22:39.614Z,23.00
2018-05-25T19:25:09.177Z,23.20
2018-05-25T19:27:38.724Z,23.50
2018-05-25T19:30:08.703Z,23.70
2018-05-25T19:32:40.375Z,24.10
2018-05-25T19:35:10.773Z,24.30
2018-05-25T19:37:40.254Z,24.50
2018-05-25T19:40:09.340Z,24.80
2018-05-25T19:42:39.121Z,24.50
2018-05-25T19:45:08.770Z,24.50
2018-05-25T19:47:38.445Z,24.80
2018-05-25T19:50:08.077Z,24.80
2018-05-25T19:52:37.507Z,24.90
2018-05-25T19:55:06.897Z,24.90
2018-05-25T19:57:36.388Z,24.60
2018-05-25T20:00:06.525Z,24.80
2018-05-25T20:02:36.098Z,25.00
2018-05-25T20:05:05.495Z,25.10
2018-05-25T20:07:35.978Z,24.90
2018-05-25T20:10:05.850Z,24.90
2018-05-25T20:12:35.587Z,24.50
2018-05-25T20:15:05.319Z,24.10
2018-05-25T20:17:37.168Z,23.90
2018-05-25T20:20:06.720Z,24.10
2018-05-25T20:22:40.160Z,24.30
2018-05-25T20:25:10.040Z,24.30
2018-05-25T20:27:39.660Z,24.40
2018-05-25T20:30:08.862Z,24.30
2018-05-25T20:32:38.310Z,24.20
2018-05-25T20:35:07.907Z,24.20
2018-05-25T20:37:37.836Z,24.20
2018-05-25T20:40:07.323Z,24.10
2018-05-25T20:42:36.881Z,24.00
2018-05-25T20:45:06.500Z,24.10
2018-05-25T20:47:36.176Z,23.80
2018-05-25T20:50:05.793Z,23.60
2018-05-25T20:52:39.484Z,23.40
2018-05-25T20:55:09.924Z,23.30
2018-05-25T20:57:41.614Z,23.20
2018-05-25T21:00:11.065Z,23.20
2018-05-25T21:02:40.607Z,23.20
2018-05-25T21:05:10.162Z,23.40
2018-05-25T21:07:39.797Z,23.40
2018-05-25T21:10:09.304Z,23.20
2018-05-25T21:12:38.858Z,23.10
2018-05-25T21:15:09.675Z,23.10
2018-05-25T21:17:38.914Z,23.00
2018-05-25T21:20:09.767Z,23.00
2018-05-25T21:22:39.217Z,23.10
2018-05-25T21:25:09.453Z,23.20
2018-05-25T21:27:39.324Z,23.10
2018-05-25T21:30:09.508Z,23.00
2018-05-25T21:32:39.287Z,23.00
2018-05-25T21:35:10.095Z,23.20
2018-05-25T21:37:40.870Z,23.10
2018-05-25T21:40:10.534Z,23.10
2018-05-25T21:42:40.110Z,23.10
2018-05-25T21:45:09.638Z,23.20
2018-05-25T21:47:40.122Z,23.20
2018-05-25T21:50:09.773Z,23.30
2018-05-25T21:52:39.585Z,23.10
2018-05-25T21:55:10.364Z,23.10
2018-05-25T21:57:39.883Z,23.00
2018-05-25T22:00:09.265Z,22.90
2018-05-25T22:02:38.813Z,22.90
2018-05-25T22:05:08.606Z,23.00
2018-05-25T22:07:39.361Z,23.10
2018-05-25T22:10:09.101Z,23.00
2018-05-25T22:12:38.588Z,23.10
2018-05-25T22:15:08.318Z,23.10
2018-05-25T22:17:37.956Z,23.30
2018-05-25T22:20:07.385Z,23.40
2018-05-25T22:22:38.318Z,23.40
2018-05-25T22:25:08.174Z,23.40
2018-05-25T22:27:38.831Z,23.30
2018-05-25T22:30:09.467Z,23.20
2018-05-25T22:32:40.010Z,23.00
2018-05-25T22:35:09.544Z,23.00
2018-05-25T22:37:39.409Z,23.10
2018-05-25T22:40:09.110Z,22.70
2018-05-25T22:42:50.433Z,22.50
2018-05-25T22:45:32.237Z,22.50
2018-05-25T22:48:12.876Z,22.50
2018-05-25T22:50:53.344Z,22.50
2018-05-25T22:53:27.634Z,22.80
2018-05-25T22:55:57.704Z,23.10
2018-05-25T22:58:27.285Z,23.20
2018-05-25T23:00:56.983Z,23.40
2018-05-25T23:03:26.684Z,23.40
2018-05-25T23:05:56.446Z,23.30
2018-05-25T23:08:26.395Z,23.30
2018-05-25T23:10:55.676Z,22.90
2018-05-25T23:13:25.329Z,22.70
2018-05-25T23:15:55.091Z,22.50
2018-05-25T23:18:24.707Z,22.30
2018-05-25T23:20:55.372Z,22.20
2018-05-25T23:23:25.936Z,22.50
2018-05-25T23:25:55.980Z,22.40
2018-05-25T23:28:25.596Z,22.50
2018-05-25T23:30:55.663Z,22.40
2018-05-25T23:33:25.126Z,22.40
2018-05-25T23:35:54.381Z,22.30
2018-05-25T23:38:24.320Z,22.00
2018-05-25T23:40:53.779Z,21.90
2018-05-25T23:43:24.154Z,21.90
2018-05-25T23:45:53.743Z,21.90
2018-05-25T23:48:23.369Z,21.90
2018-05-25T23:50:53.021Z,22.00
2018-05-25T23:53:22.514Z,22.00
2018-05-25T23:55:52.123Z,21.80
2018-05-25T23:58:22.146Z,21.80
